createdAt,value
2018-11-14T00:00:27.170Z,6.30
2018-11-14T00:02:55.908Z,7.57
2018-11-14T00:05:24.779Z,7.70
2018-11-14T00:07:53.339Z,8.33
2018-11-14T00:10:21.711Z,7.93
2018-11-14T00:12:50.075Z,7.57
2018-11-14T00:15:22.721Z,7.00
2018-11-14T00:17:51.501Z,8.68
2018-11-14T00:20:19.896Z,7.80
2018-11-14T00:22:49.453Z,7.37
2018-11-14T00:25:17.966Z,7.97
2018-11-14T00:27:46.473Z,8.47
2018-11-14T00:30:17.207Z,6.03
2018-11-14T00:32:45.566Z,7.50
2018-11-14T00:35:14.236Z,7.90
2018-11-14T00:37:43.027Z,7.77
2018-11-14T00:40:12.528Z,7.87
2018-11-14T00:42:41.347Z,7.57
2018-11-14T00:45:11.593Z,6.70
2018-11-14T00:47:40.025Z,8.33
2018-11-14T00:50:09.149Z,7.70
2018-11-14T00:52:37.513Z,7.93
2018-11-14T00:55:08.044Z,7.70
2018-11-14T00:57:36.424Z,8.70
2018-11-14T01:00:06.436Z,8.13
2018-11-14T01:02:35.637Z,8.50
2018-11-14T01:05:06.762Z,7.50
2018-11-14T01:07:35.408Z,8.47
2018-11-14T01:10:04.522Z,7.90
2018-11-14T01:12:33.097Z,8.30
2018-11-14T01:15:01.451Z,8.37
2018-11-14T01:17:29.956Z,8.83
2018-11-14T01:19:58.352Z,8.40
2018-11-14T01:22:26.693Z,7.20
2018-11-14T01:24:55.055Z,8.27
2018-11-14T01:27:24.033Z,8.70
2018-11-14T01:29:52.845Z,7.83
2018-11-14T01:32:21.171Z,20.50
2018-11-14T01:34:49.515Z,9.07
2018-11-14T01:37:17.890Z,41.10
2018-11-14T01:39:46.270Z,41.10
2018-11-14T01:42:14.605Z,13.87
2018-11-14T01:44:43.477Z,13.73
2018-11-14T01:47:11.850Z,12.83
2018-11-14T01:49:40.230Z,11.03
2018-11-14T01:52:08.590Z,8.60
2018-11-14T01:54:37.130Z,9.07
2018-11-14T01:57:05.699Z,8.47
2018-11-14T01:59:34.023Z,11.40
2018-11-14T02:02:02.549Z,9.15
2018-11-14T02:04:30.923Z,10.17
2018-11-14T02:06:59.266Z,9.40
2018-11-14T02:09:27.941Z,9.70
2018-11-14T02:11:56.310Z,8.23
2018-11-14T02:14:25.039Z,8.17
2018-11-14T02:16:53.472Z,9.90
2018-11-14T02:19:21.849Z,7.70
2018-11-14T11:49:43.061Z,1.40
2018-11-14T11:52:11.370Z,1.50
2018-11-14T11:54:39.708Z,1.50
2018-11-14T11:57:08.322Z,1.50
2018-11-14T11:59:36.719Z,1.57
2018-11-14T12:02:06.510Z,1.22
2018-11-14T12:04:36.478Z,1.50
2018-11-14T12:07:05.388Z,1.55
2018-11-14T12:09:34.359Z,1.65
2018-11-14T12:12:04.187Z,1.90
2018-11-14T12:14:33.369Z,1.25
2018-11-14T12:17:01.990Z,1.50
2018-11-14T12:19:30.306Z,2.55
2018-11-14T12:21:58.711Z,1.50
2018-11-14T12:24:27.061Z,1.30
2018-11-14T12:26:55.434Z,1.52
2018-11-14T12:29:23.756Z,1.55
2018-11-14T12:31:52.096Z,2.17
2018-11-14T12:34:20.420Z,1.80
2018-11-14T12:36:48.818Z,1.45
2018-11-14T12:39:17.181Z,1.75
2018-11-14T12:41:45.690Z,2.40
2018-11-14T12:44:14.202Z,1.92
2018-11-14T12:46:42.738Z,1.82
2018-11-14T12:49:11.133Z,1.72
2018-11-14T12:51:39.499Z,2.10
2018-11-14T12:54:07.869Z,2.58
2018-11-14T12:56:36.244Z,3.02
2018-11-14T12:59:04.590Z,4.22
2018-11-14T13:01:33.923Z,2.98
2018-11-14T13:04:02.238Z,4.65
2018-11-14T13:06:30.709Z,9.88
2018-11-14T13:08:59.029Z,4.55
2018-11-14T13:11:27.642Z,4.35
2018-11-14T13:13:56.363Z,3.10
2018-11-14T13:16:24.690Z,3.12
2018-11-14T13:18:52.997Z,3.15
2018-11-14T13:21:21.339Z,5.50
2018-11-14T13:23:49.686Z,4.58
2018-11-14T13:26:18.069Z,5.03
2018-11-14T13:28:46.532Z,7.08
2018-11-14T13:31:15.049Z,9.58
2018-11-14T13:33:43.352Z,2.50
2018-11-14T13:36:11.679Z,2.55
2018-11-14T13:38:40.125Z,1.92
2018-11-14T13:41:08.533Z,4.10
2018-11-14T13:43:36.870Z,4.70
2018-11-14T13:46:05.405Z,3.60
2018-11-14T13:48:33.738Z,2.60
2018-11-14T13:51:02.298Z,3.40
2018-11-14T13:53:30.517Z,2.40
2018-11-14T13:55:58.891Z,2.70
2018-11-14T13:58:27.236Z,2.58
2018-11-14T14:00:55.575Z,2.12
2018-11-14T14:03:23.958Z,2.30
2018-11-14T14:05:52.502Z,2.35
2018-11-14T14:08:20.816Z,2.67
2018-11-14T14:10:49.165Z,2.77
2018-11-14T14:13:17.518Z,2.22
2018-11-14T14:15:46.071Z,2.52
2018-11-14T14:18:14.441Z,1.80
2018-11-14T14:20:42.795Z,2.35
2018-11-14T14:23:11.358Z,2.58
2018-11-14T14:25:39.696Z,2.33
2018-11-14T14:28:08.023Z,2.20
2018-11-14T14:30:36.403Z,2.35
2018-11-14T14:33:04.854Z,3.05
2018-11-14T14:35:33.320Z,2.05
2018-11-14T14:38:01.711Z,2.67
2018-11-14T14:40:30.105Z,2.58
2018-11-14T14:42:58.431Z,2.37
2018-11-14T14:45:27.253Z,2.37
2018-11-14T14:47:55.642Z,2.05
2018-11-14T14:50:24.001Z,2.37
2018-11-14T14:52:52.357Z,2.15
2018-11-14T14:55:22.267Z,2.35
2018-11-14T14:57:50.637Z,2.10
2018-11-14T15:00:21.141Z,2.80
2018-11-14T15:02:49.638Z,2.90
2018-11-14T15:05:18.144Z,3.08
2018-11-14T15:07:46.497Z,2.42
2018-11-14T15:10:16.124Z,2.20
2018-11-14T15:12:44.478Z,2.70
2018-11-14T15:15:13.714Z,2.75
2018-11-14T15:17:42.240Z,2.77
2018-11-14T15:20:12.876Z,3.12
2018-11-14T15:22:41.603Z,3.17
2018-11-14T15:25:11.787Z,2.80
2018-11-14T15:27:40.994Z,2.80
2018-11-14T15:30:12.344Z,2.83
2018-11-14T15:32:41.069Z,2.72
2018-11-14T15:35:10.485Z,3.02
2018-11-14T15:37:38.965Z,3.58
2018-11-14T15:40:08.890Z,2.62
2018-11-14T15:42:37.976Z,2.77
2018-11-14T15:45:07.982Z,3.22
2018-11-14T15:47:37.172Z,3.05
2018-11-14T15:50:07.494Z,2.30
2018-11-14T15:52:35.860Z,2.77
2018-11-14T15:55:04.473Z,3.15
2018-11-14T15:57:32.801Z,2.58
2018-11-14T16:00:01.157Z,3.45
2018-11-14T16:02:29.519Z,2.55
2018-11-14T16:04:57.923Z,2.17
2018-11-14T16:07:26.507Z,3.02
2018-11-14T16:09:54.823Z,3.30
2018-11-14T16:12:23.242Z,2.35
2018-11-14T16:14:51.517Z,4.25
2018-11-14T16:17:19.888Z,3.55
2018-11-14T16:19:48.274Z,2.75
2018-11-14T16:22:16.581Z,3.25
2018-11-14T16:24:45.217Z,3.12
2018-11-14T16:27:13.911Z,3.17
2018-11-14T16:29:42.265Z,2.75
2018-11-14T16:32:10.714Z,3.02
2018-11-14T16:34:39.146Z,6.75
2018-11-14T16:37:07.510Z,4.17
2018-11-14T16:39:35.891Z,8.35
2018-11-14T16:42:04.277Z,8.55
2018-11-14T16:44:32.751Z,5.00
2018-11-14T16:47:01.019Z,3.83
2018-11-14T16:49:29.352Z,3.70
2018-11-14T16:51:57.637Z,3.02
2018-11-14T16:54:25.958Z,2.85
2018-11-14T16:56:54.769Z,2.45
2018-11-14T16:59:23.116Z,3.62
2018-11-14T17:01:51.454Z,3.40
2018-11-14T17:04:20.162Z,3.40
2018-11-14T17:06:48.524Z,2.85
2018-11-14T17:09:16.855Z,2.92
2018-11-14T17:11:45.258Z,2.80
2018-11-14T17:14:13.621Z,3.52
2018-11-14T17:16:41.986Z,3.05
2018-11-14T17:19:10.377Z,2.98
2018-11-14T17:21:38.717Z,3.72
2018-11-14T17:24:07.470Z,3.37
2018-11-14T17:26:35.757Z,4.08
2018-11-14T17:29:04.618Z,3.55
2018-11-14T17:31:32.987Z,4.12
2018-11-14T17:34:01.350Z,3.80
2018-11-14T17:36:30.315Z,3.58
2018-11-14T17:38:58.676Z,3.42
2018-11-14T17:41:27.336Z,3.85
2018-11-14T17:43:55.668Z,3.20
2018-11-14T17:46:23.985Z,3.10
2018-11-14T17:48:52.316Z,3.75
2018-11-14T17:51:20.681Z,3.52
2018-11-14T17:53:49.154Z,3.52
2018-11-14T17:56:17.497Z,3.98
2018-11-14T17:58:46.307Z,4.80
2018-11-14T18:01:15.824Z,4.75
2018-11-14T18:03:44.190Z,4.47
2018-11-14T18:06:12.937Z,6.72
2018-11-14T18:08:41.270Z,16.32
2018-11-14T18:11:09.660Z,16.05
2018-11-14T18:13:38.396Z,4.17
2018-11-14T18:16:07.079Z,4.83
2018-11-14T18:18:35.460Z,4.63
2018-11-14T18:21:03.850Z,4.55
2018-11-14T18:23:32.174Z,4.72
2018-11-14T18:26:00.507Z,5.20
2018-11-14T18:28:28.867Z,5.20
2018-11-14T18:30:57.229Z,5.53
2018-11-14T18:33:25.564Z,5.17
2018-11-14T18:35:53.872Z,5.50
2018-11-14T18:38:22.245Z,5.57
2018-11-14T18:40:50.631Z,6.03
2018-11-14T18:43:18.991Z,6.30
2018-11-14T18:45:47.692Z,8.00
2018-11-14T18:48:16.054Z,7.50
2018-11-14T18:50:44.461Z,8.57
2018-11-14T18:53:12.813Z,8.03
2018-11-14T18:55:41.205Z,7.70
2018-11-14T18:58:10.355Z,8.27
2018-11-14T19:00:38.762Z,7.70
2018-11-14T19:03:07.126Z,8.63
2018-11-14T19:05:35.555Z,8.10
2018-11-14T19:08:03.951Z,8.97
2018-11-14T19:10:33.552Z,58.77
2018-11-14T19:13:01.932Z,49.70
2018-11-14T19:15:31.739Z,18.63
2018-11-14T19:18:00.088Z,15.37
2018-11-14T19:20:29.691Z,12.77
2018-11-14T19:22:58.908Z,8.67
2018-11-14T19:25:28.803Z,9.53
2018-11-14T19:27:57.796Z,10.37
2018-11-14T19:30:27.992Z,10.10
2018-11-14T19:32:56.965Z,9.63
2018-11-14T19:35:25.331Z,9.60
2018-11-14T19:37:54.503Z,9.27
2018-11-14T19:40:37.672Z,10.37
2018-11-14T19:43:08.157Z,10.30
2018-11-14T19:45:37.560Z,9.17
2018-11-14T19:48:06.261Z,10.60
2018-11-14T19:50:34.696Z,9.50
2018-11-14T19:53:03.291Z,10.37
2018-11-14T19:55:32.224Z,12.30
2018-11-14T19:58:01.691Z,10.37
2018-11-14T20:00:31.631Z,10.27
2018-11-14T20:03:00.066Z,10.30
2018-11-14T20:05:28.466Z,9.33
2018-11-14T20:07:56.818Z,9.27
2018-11-14T20:10:27.160Z,9.80
2018-11-14T20:12:55.887Z,10.37
2018-11-14T20:15:25.790Z,9.73
2018-11-14T20:17:54.183Z,9.70
2018-11-14T20:20:29.421Z,9.27
2018-11-14T20:22:57.802Z,9.13
2018-11-14T20:25:26.181Z,9.03
2018-11-14T20:27:54.548Z,8.03
2018-11-14T20:30:27.257Z,9.80
2018-11-14T20:32:56.671Z,7.43
2018-11-14T20:35:25.906Z,8.47
2018-11-14T20:37:54.235Z,8.67
2018-11-14T20:40:23.071Z,8.23
2018-11-14T20:42:52.284Z,8.47
2018-11-14T20:45:23.095Z,7.43
2018-11-14T20:47:51.489Z,6.83
2018-11-14T20:50:21.016Z,7.97
2018-11-14T20:52:50.829Z,7.47
2018-11-14T20:55:19.218Z,8.80
2018-11-14T20:57:47.572Z,34.33
2018-11-14T21:00:20.664Z,20.73
2018-11-14T21:02:49.365Z,9.40
2018-11-14T21:05:17.762Z,8.17
2018-11-14T21:07:46.198Z,7.23
2018-11-14T21:10:16.940Z,8.03
2018-11-14T21:12:45.621Z,8.17
2018-11-14T21:15:16.297Z,8.40
2018-11-14T21:17:44.842Z,8.90
2018-11-14T21:20:13.209Z,7.43
2018-11-14T21:22:42.014Z,7.30
2018-11-14T21:25:12.245Z,8.03
2018-11-14T21:27:41.532Z,10.13
2018-11-14T21:30:11.303Z,8.83
2018-11-14T21:32:40.300Z,7.53
2018-11-14T21:35:13.593Z,7.10
2018-11-14T21:37:42.504Z,7.03
2018-11-14T21:40:11.471Z,8.40
2018-11-14T21:42:40.086Z,7.93
2018-11-14T21:45:10.826Z,9.23
2018-11-14T21:47:44.554Z,8.40
2018-11-14T21:50:13.119Z,9.27
2018-11-14T21:52:41.476Z,7.67
2018-11-14T21:55:10.394Z,8.40
2018-11-14T21:57:39.262Z,8.37
2018-11-14T22:00:10.493Z,7.80
2018-11-14T22:02:38.937Z,8.17
2018-11-14T22:05:07.914Z,8.97
2018-11-14T22:07:36.523Z,7.90
2018-11-14T22:10:05.695Z,8.30
2018-11-14T22:12:34.166Z,8.03
2018-11-14T22:15:02.515Z,7.20
2018-11-14T22:17:30.885Z,6.90
2018-11-14T22:19:59.223Z,7.80
2018-11-14T22:22:27.605Z,7.93
2018-11-14T22:24:56.141Z,7.47
2018-11-14T22:27:24.524Z,8.00
2018-11-14T22:29:52.835Z,8.73
2018-11-14T22:32:21.219Z,7.40
2018-11-14T22:34:49.627Z,7.17
2018-11-14T22:37:17.963Z,7.40
2018-11-14T22:39:46.315Z,7.07
2018-11-14T22:42:14.649Z,6.63
2018-11-14T22:44:43.004Z,7.00
2018-11-14T22:47:11.360Z,6.87
2018-11-14T22:49:39.675Z,7.20
2018-11-14T22:52:08.017Z,6.23
2018-11-14T22:54:36.371Z,6.43
2018-11-14T22:57:05.224Z,6.27
2018-11-14T22:59:33.535Z,7.30
2018-11-14T23:02:01.960Z,6.73
2018-11-14T23:04:30.319Z,6.53
2018-11-14T23:06:58.664Z,6.13
2018-11-14T23:09:27.037Z,6.30
2018-11-14T23:11:55.374Z,7.10
2018-11-14T23:14:23.781Z,6.23
2018-11-14T23:16:52.189Z,6.53
2018-11-14T23:19:20.550Z,6.93
2018-11-14T23:21:48.859Z,6.47
2018-11-14T23:24:17.205Z,6.90
2018-11-14T23:26:45.564Z,7.77
2018-11-14T23:29:13.911Z,7.57
2018-11-14T23:31:42.250Z,6.60
2018-11-14T23:34:10.611Z,7.40
2018-11-14T23:36:38.974Z,6.67
2018-11-14T23:39:10.185Z,6.70
2018-11-14T23:41:38.510Z,7.30
2018-11-14T23:44:06.870Z,7.67
2018-11-14T23:46:35.203Z,8.47
2018-11-14T23:49:04.073Z,8.33
2018-11-14T23:51:33.537Z,7.87
2018-11-14T23:54:02.068Z,7.27
2018-11-14T23:56:30.416Z,8.70
2018-11-14T23:58:58.753Z,8.80
